TimeEST,TemperatureF,Dew PointF,Humidity,Sea Level PressureIn,VisibilityMPH,Wind Direction,Wind SpeedMPH,Gust SpeedMPH,PrecipitationIn,Events,Conditions,WindDirDegrees,DateUTC
12:53 AM,44.1,35.1,71,30.16,10.0,North,6.9,-,N/A,,Clear,360,2012-11-22 05:53:00
1:53 AM,44.1,35.1,71,30.15,10.0,North,8.1,-,N/A,,Clear,10,2012-11-22 06:53:00
2:53 AM,43.0,34.0,71,30.14,10.0,North,8.1,-,N/A,,Clear,360,2012-11-22 07:53:00
3:53 AM,43.0,33.1,68,30.14,10.0,North,9.2,-,N/A,,Clear,350,2012-11-22 08:53:00
4:53 AM,42.1,32.0,67,30.16,10.0,North,8.1,-,N/A,,Clear,10,2012-11-22 09:53:00
5:53 AM,41.0,32.0,70,30.19,10.0,North,8.1,-,N/A,,Clear,360,2012-11-22 10:53:00
6:53 AM,42.1,32.0,67,30.20,10.0,North,9.2,-,N/A,,Clear,360,2012-11-22 11:53:00
7:53 AM,44.1,32.0,63,30.22,10.0,North,10.4,-,N/A,,Clear,10,2012-11-22 12:53:00
8:53 AM,48.9,33.1,54,30.24,10.0,North,9.2,-,N/A,,Clear,360,2012-11-22 13:53:00
9:53 AM,53.1,30.9,43,30.23,10.0,NNE,11.5,21.9,N/A,,Clear,20,2012-11-22 14:53:00
10:53 AM,57.9,30.0,35,30.22,10.0,NE,10.4,18.4,N/A,,Clear,40,2012-11-22 15:53:00
11:53 AM,62.1,21.9,21,30.19,10.0,NE,10.4,19.6,N/A,,Clear,40,2012-11-22 16:53:00
12:53 PM,64.0,21.0,19,30.17,10.0,North,9.2,-,N/A,,Clear,10,2012-11-22 17:53:00
1:53 PM,64.9,21.0,19,30.15,10.0,North,15.0,-,N/A,,Clear,350,2012-11-22 18:53:00
2:53 PM,66.0,21.9,19,30.14,10.0,NNW,10.4,-,N/A,,Clear,340,2012-11-22 19:53:00
3:53 PM,64.0,21.9,20,30.14,10.0,North,10.4,-,N/A,,Clear,350,2012-11-22 20:53:00
4:53 PM,61.0,26.1,26,30.15,10.0,NNW,6.9,-,N/A,,Clear,340,2012-11-22 21:53:00
5:53 PM,53.1,30.0,41,30.17,10.0,Calm,Calm,-,N/A,,Clear,0,2012-11-22 22:53:00
6:53 PM,50.0,34.0,54,30.17,10.0,North,3.5,-,N/A,,Clear,360,2012-11-22 23:53:00
7:53 PM,46.9,33.1,59,30.18,10.0,North,4.6,-,N/A,,Clear,350,2012-11-23 00:53:00
8:53 PM,46.0,32.0,58,30.19,10.0,North,3.5,-,N/A,,Clear,350,2012-11-23 01:53:00
9:53 PM,44.1,32.0,63,30.19,10.0,Calm,Calm,-,N/A,,Clear,0,2012-11-23 02:53:00
10:53 PM,37.9,30.9,76,30.19,6.0,Calm,Calm,-,N/A,,Haze,0,2012-11-23 03:53:00
11:53 PM,36.0,30.9,82,30.18,6.0,NW,3.5,-,N/A,,Haze,310,2012-11-23 04:53:00